sensor_id;sensor_type;location;lat;lon;timestamp;P1;durP1;ratioP1;P2;durP2;ratioP2
4732;SDS011;2380;53.668;10.008;2023-04-01T00:00:08;13.20;;;6.60;;
4732;SDS011;2380;53.668;10.008;2023-04-01T00:02:39;23.27;;;11.30;;
4732;SDS011;2380;53.668;10.008;2023-04-01T00:05:09;16.13;;;8.30;;
4732;SDS011;2380;53.668;10.008;2023-04-01T00:07:41;20.47;;;8.97;;
4732;SDS011;2380;53.668;10.008;2023-04-01T00:10:12;31.30;;;15.97;;
4732;SDS011;2380;53.668;10.008;2023-04-01T00:12:42;23.90;;;10.33;;
4732;SDS011;2380;53.668;10.008;2023-04-01T00:15:12;14.70;;;6.80;;
4732;SDS011;2380;53.668;10.008;2023-04-01T00:17:42;12.57;;;7.63;;
4732;SDS011;2380;53.668;10.008;2023-04-01T00:20:11;12.27;;;6.37;;
4732;SDS011;2380;53.668;10.008;2023-04-01T00:22:44;14.53;;;6.80;;
4732;SDS011;2380;53.668;10.008;2023-04-01T00:25:13;17.87;;;8.90;;
4732;SDS011;2380;53.668;10.008;2023-04-01T00:27:43;12.70;;;7.00;;
4732;SDS011;2380;53.668;10.008;2023-04-01T00:30:13;14.13;;;6.43;;
4732;SDS011;2380;53.668;10.008;2023-04-01T00:32:43;14.07;;;6.20;;
4732;SDS011;2380;53.668;10.008;2023-04-01T00:35:13;27.33;;;12.20;;
4732;SDS011;2380;53.668;10.008;2023-04-01T00:37:45;18.63;;;8.17;;
4732;SDS011;2380;53.668;10.008;2023-04-01T00:40:21;13.33;;;6.93;;
4732;SDS011;2380;53.668;10.008;2023-04-01T00:42:53;15.23;;;7.60;;
4732;SDS011;2380;53.668;10.008;2023-04-01T00:45:25;17.57;;;8.10;;
4732;SDS011;2380;53.668;10.008;2023-04-01T00:47:58;21.80;;;10.03;;
4732;SDS011;2380;53.668;10.008;2023-04-01T00:50:29;20.00;;;8.53;;
4732;SDS011;2380;53.668;10.008;2023-04-01T00:53:02;11.57;;;7.00;;
4732;SDS011;2380;53.668;10.008;2023-04-01T00:55:34;24.00;;;9.87;;
4732;SDS011;2380;53.668;10.008;2023-04-01T00:58:05;30.03;;;13.57;;
4732;SDS011;2380;53.668;10.008;2023-04-01T01:00:36;17.13;;;8.30;;
4732;SDS011;2380;53.668;10.008;2023-04-01T01:03:07;28.80;;;12.40;;
4732;SDS011;2380;53.668;10.008;2023-04-01T01:05:39;8.90;;;5.90;;
4732;SDS011;2380;53.668;10.008;2023-04-01T01:08:21;11.57;;;6.70;;
4732;SDS011;2380;53.668;10.008;2023-04-01T01:10:56;12.60;;;7.07;;
4732;SDS011;2380;53.668;10.008;2023-04-01T01:13:26;14.17;;;7.00;;
4732;SDS011;2380;53.668;10.008;2023-04-01T01:16:01;76.90;;;35.43;;
4732;SDS011;2380;53.668;10.008;2023-04-01T01:18:35;42.63;;;20.73;;
4732;SDS011;2380;53.668;10.008;2023-04-01T01:24:11;20.20;;;10.00;;
4732;SDS011;2380;53.668;10.008;2023-04-01T01:26:52;25.43;;;13.40;;
4732;SDS011;2380;53.668;10.008;2023-04-01T01:35:34;17.40;;;8.63;;
4732;SDS011;2380;53.668;10.008;2023-04-01T01:38:06;21.63;;;8.20;;
4732;SDS011;2380;53.668;10.008;2023-04-01T01:40:38;11.60;;;7.13;;
4732;SDS011;2380;53.668;10.008;2023-04-01T01:43:10;13.47;;;7.60;;
4732;SDS011;2380;53.668;10.008;2023-04-01T01:45:44;12.87;;;6.57;;
4732;SDS011;2380;53.668;10.008;2023-04-01T01:48:16;12.53;;;7.17;;
4732;SDS011;2380;53.668;10.008;2023-04-01T01:50:48;13.33;;;6.80;;
4732;SDS011;2380;53.668;10.008;2023-04-01T01:53:19;11.70;;;6.83;;
4732;SDS011;2380;53.668;10.008;2023-04-01T01:55:49;17.33;;;7.07;;
4732;SDS011;2380;53.668;10.008;2023-04-01T01:58:19;26.17;;;11.57;;
4732;SDS011;2380;53.668;10.008;2023-04-01T02:00:52;15.60;;;8.93;;
4732;SDS011;2380;53.668;10.008;2023-04-01T02:03:24;32.47;;;16.17;;
4732;SDS011;2380;53.668;10.008;2023-04-01T02:05:57;21.00;;;10.87;;
4732;SDS011;2380;53.668;10.008;2023-04-01T02:08:30;14.40;;;7.40;;
4732;SDS011;2380;53.668;10.008;2023-04-01T02:11:04;15.37;;;6.63;;
4732;SDS011;2380;53.668;10.008;2023-04-01T02:13:37;14.07;;;6.87;;
4732;SDS011;2380;53.668;10.008;2023-04-01T02:16:11;10.80;;;6.70;;
4732;SDS011;2380;53.668;10.008;2023-04-01T02:18:43;12.33;;;6.50;;
4732;SDS011;2380;53.668;10.008;2023-04-01T02:21:17;11.67;;;6.90;;
4732;SDS011;2380;53.668;10.008;2023-04-01T02:23:49;12.23;;;6.43;;
4732;SDS011;2380;53.668;10.008;2023-04-01T02:26:20;16.83;;;7.40;;
4732;SDS011;2380;53.668;10.008;2023-04-01T02:28:50;16.90;;;6.83;;
4732;SDS011;2380;53.668;10.008;2023-04-01T02:31:20;12.10;;;6.80;;
4732;SDS011;2380;53.668;10.008;2023-04-01T02:33:50;13.53;;;6.50;;
4732;SDS011;2380;53.668;10.008;2023-04-01T02:36:22;21.80;;;7.60;;
4732;SDS011;2380;53.668;10.008;2023-04-01T02:38:52;11.20;;;6.20;;
4732;SDS011;2380;53.668;10.008;2023-04-01T02:41:25;15.20;;;6.40;;
4732;SDS011;2380;53.668;10.008;2023-04-01T02:43:55;14.10;;;6.30;;
4732;SDS011;2380;53.668;10.008;2023-04-01T02:46:25;11.30;;;6.27;;
4732;SDS011;2380;53.668;10.008;2023-04-01T02:48:55;13.03;;;7.30;;
4732;SDS011;2380;53.668;10.008;2023-04-01T02:51:27;13.50;;;5.90;;
4732;SDS011;2380;53.668;10.008;2023-04-01T02:53:58;12.40;;;6.43;;
4732;SDS011;2380;53.668;10.008;2023-04-01T02:56:27;13.77;;;7.07;;
4732;SDS011;2380;53.668;10.008;2023-04-01T02:58:57;12.50;;;6.40;;
4732;SDS011;2380;53.668;10.008;2023-04-01T03:01:27;13.20;;;6.67;;
4732;SDS011;2380;53.668;10.008;2023-04-01T03:03:56;11.90;;;5.93;;
4732;SDS011;2380;53.668;10.008;2023-04-01T03:06:29;11.27;;;6.73;;
4732;SDS011;2380;53.668;10.008;2023-04-01T03:08:58;10.40;;;6.53;;
4732;SDS011;2380;53.668;10.008;2023-04-01T03:11:28;12.03;;;6.37;;
4732;SDS011;2380;53.668;10.008;2023-04-01T03:13:57;13.97;;;7.00;;
4732;SDS011;2380;53.668;10.008;2023-04-01T03:16:27;14.50;;;7.93;;
4732;SDS011;2380;53.668;10.008;2023-04-01T03:18:56;19.43;;;6.70;;
4732;SDS011;2380;53.668;10.008;2023-04-01T03:21:30;14.07;;;7.30;;
4732;SDS011;2380;53.668;10.008;2023-04-01T03:24:00;14.57;;;7.70;;
4732;SDS011;2380;53.668;10.008;2023-04-01T03:26:29;11.70;;;6.33;;
4732;SDS011;2380;53.668;10.008;2023-04-01T03:28:59;14.03;;;7.23;;
4732;SDS011;2380;53.668;10.008;2023-04-01T03:31:29;14.10;;;7.27;;
4732;SDS011;2380;53.668;10.008;2023-04-01T03:33:58;18.23;;;8.50;;
4732;SDS011;2380;53.668;10.008;2023-04-01T03:36:30;10.27;;;6.63;;
4732;SDS011;2380;53.668;10.008;2023-04-01T03:39:00;12.40;;;7.50;;
4732;SDS011;2380;53.668;10.008;2023-04-01T03:41:30;12.77;;;7.50;;
4732;SDS011;2380;53.668;10.008;2023-04-01T03:44:01;11.30;;;7.00;;
4732;SDS011;2380;53.668;10.008;2023-04-01T03:46:30;18.20;;;8.83;;
4732;SDS011;2380;53.668;10.008;2023-04-01T03:49:00;13.60;;;7.87;;
4732;SDS011;2380;53.668;10.008;2023-04-01T03:51:32;18.10;;;8.37;;
4732;SDS011;2380;53.668;10.008;2023-04-01T03:54:02;14.17;;;8.20;;
4732;SDS011;2380;53.668;10.008;2023-04-01T03:56:31;12.07;;;7.70;;
4732;SDS011;2380;53.668;10.008;2023-04-01T03:59:01;17.43;;;8.23;;
4732;SDS011;2380;53.668;10.008;2023-04-01T04:01:32;15.70;;;8.33;;
4732;SDS011;2380;53.668;10.008;2023-04-01T04:04:02;15.13;;;8.47;;
4732;SDS011;2380;53.668;10.008;2023-04-01T04:06:34;13.57;;;7.63;;
4732;SDS011;2380;53.668;10.008;2023-04-01T04:09:04;16.10;;;8.47;;
4732;SDS011;2380;53.668;10.008;2023-04-01T04:11:33;17.60;;;8.17;;
4732;SDS011;2380;53.668;10.008;2023-04-01T04:14:03;15.87;;;8.47;;
4732;SDS011;2380;53.668;10.008;2023-04-01T04:16:34;12.97;;;8.20;;
4732;SDS011;2380;53.668;10.008;2023-04-01T04:19:05;15.80;;;8.53;;
4732;SDS011;2380;53.668;10.008;2023-04-01T04:21:37;15.63;;;8.10;;
4732;SDS011;2380;53.668;10.008;2023-04-01T04:24:06;23.93;;;14.13;;
4732;SDS011;2380;53.668;10.008;2023-04-01T04:26:36;14.70;;;8.87;;
4732;SDS011;2380;53.668;10.008;2023-04-01T04:29:06;28.87;;;16.10;;
4732;SDS011;2380;53.668;10.008;2023-04-01T04:31:35;8.13;;;5.13;;
4732;SDS011;2380;53.668;10.008;2023-04-01T04:34:05;11.43;;;6.80;;
4732;SDS011;2380;53.668;10.008;2023-04-01T04:36:37;8.53;;;5.37;;
4732;SDS011;2380;53.668;10.008;2023-04-01T04:39:07;4.80;;;3.53;;
4732;SDS011;2380;53.668;10.008;2023-04-01T04:41:37;4.63;;;2.40;;
4732;SDS011;2380;53.668;10.008;2023-04-01T04:44:06;5.40;;;3.23;;
4732;SDS011;2380;53.668;10.008;2023-04-01T04:46:36;8.40;;;5.07;;
4732;SDS011;2380;53.668;10.008;2023-04-01T04:49:06;17.63;;;10.30;;
4732;SDS011;2380;53.668;10.008;2023-04-01T04:51:38;9.20;;;5.67;;
4732;SDS011;2380;53.668;10.008;2023-04-01T04:54:08;26.90;;;15.27;;
4732;SDS011;2380;53.668;10.008;2023-04-01T04:56:37;11.30;;;6.60;;
4732;SDS011;2380;53.668;10.008;2023-04-01T04:59:07;3.30;;;2.30;;
4732;SDS011;2380;53.668;10.008;2023-04-01T05:01:37;3.50;;;2.10;;
4732;SDS011;2380;53.668;10.008;2023-04-01T05:04:06;4.97;;;2.10;;
4732;SDS011;2380;53.668;10.008;2023-04-01T05:06:39;3.00;;;1.77;;
4732;SDS011;2380;53.668;10.008;2023-04-01T05:09:08;3.40;;;1.97;;
4732;SDS011;2380;53.668;10.008;2023-04-01T05:11:38;4.77;;;2.00;;
4732;SDS011;2380;53.668;10.008;2023-04-01T05:14:11;3.83;;;2.37;;
4732;SDS011;2380;53.668;10.008;2023-04-01T05:16:41;5.80;;;2.77;;
4732;SDS011;2380;53.668;10.008;2023-04-01T05:19:11;5.10;;;2.33;;
4732;SDS011;2380;53.668;10.008;2023-04-01T05:21:43;4.23;;;2.30;;
4732;SDS011;2380;53.668;10.008;2023-04-01T05:24:12;3.53;;;2.23;;
4732;SDS011;2380;53.668;10.008;2023-04-01T05:26:42;3.20;;;2.30;;
4732;SDS011;2380;53.668;10.008;2023-04-01T05:29:11;2.63;;;1.67;;
4732;SDS011;2380;53.668;10.008;2023-04-01T05:31:41;3.53;;;1.83;;
4732;SDS011;2380;53.668;10.008;2023-04-01T05:34:11;3.93;;;2.03;;
4732;SDS011;2380;53.668;10.008;2023-04-01T05:36:43;2.40;;;1.87;;
4732;SDS011;2380;53.668;10.008;2023-04-01T05:39:12;3.43;;;1.90;;
4732;SDS011;2380;53.668;10.008;2023-04-01T05:41:42;3.37;;;1.90;;
4732;SDS011;2380;53.668;10.008;2023-04-01T05:44:12;2.97;;;1.60;;
4732;SDS011;2380;53.668;10.008;2023-04-01T05:46:41;4.97;;;2.80;;
4732;SDS011;2380;53.668;10.008;2023-04-01T05:49:11;2.30;;;1.60;;
4732;SDS011;2380;53.668;10.008;2023-04-01T05:51:43;3.63;;;1.93;;
4732;SDS011;2380;53.668;10.008;2023-04-01T05:54:13;4.07;;;2.37;;
4732;SDS011;2380;53.668;10.008;2023-04-01T05:56:42;2.30;;;1.33;;
4732;SDS011;2380;53.668;10.008;2023-04-01T05:59:16;3.10;;;1.50;;
4732;SDS011;2380;53.668;10.008;2023-04-01T06:01:46;3.00;;;1.60;;
4732;SDS011;2380;53.668;10.008;2023-04-01T06:04:16;3.37;;;2.10;;
4732;SDS011;2380;53.668;10.008;2023-04-01T06:06:49;2.43;;;1.43;;
4732;SDS011;2380;53.668;10.008;2023-04-01T06:09:19;3.07;;;1.50;;
4732;SDS011;2380;53.668;10.008;2023-04-01T06:12:06;2.10;;;1.30;;
4732;SDS011;2380;53.668;10.008;2023-04-01T06:14:46;3.23;;;1.90;;
4732;SDS011;2380;53.668;10.008;2023-04-01T06:17:24;2.70;;;1.43;;
4732;SDS011;2380;53.668;10.008;2023-04-01T06:19:57;4.60;;;2.20;;
4732;SDS011;2380;53.668;10.008;2023-04-01T06:22:38;2.50;;;1.60;;
4732;SDS011;2380;53.668;10.008;2023-04-01T06:25:18;3.47;;;2.30;;
4732;SDS011;2380;53.668;10.008;2023-04-01T06:27:59;2.93;;;1.70;;
4732;SDS011;2380;53.668;10.008;2023-04-01T06:30:59;3.03;;;2.03;;
4732;SDS011;2380;53.668;10.008;2023-04-01T06:33:35;3.97;;;1.63;;
4732;SDS011;2380;53.668;10.008;2023-04-01T06:36:15;2.63;;;1.70;;
4732;SDS011;2380;53.668;10.008;2023-04-01T06:39:03;2.40;;;1.40;;
4732;SDS011;2380;53.668;10.008;2023-04-01T06:41:54;3.50;;;2.50;;
4732;SDS011;2380;53.668;10.008;2023-04-01T06:44:32;4.13;;;1.70;;
4732;SDS011;2380;53.668;10.008;2023-04-01T06:47:09;4.20;;;2.20;;
4732;SDS011;2380;53.668;10.008;2023-04-01T06:49:48;2.23;;;1.53;;
4732;SDS011;2380;53.668;10.008;2023-04-01T06:52:23;2.00;;;1.30;;
4732;SDS011;2380;53.668;10.008;2023-04-01T06:55:00;2.70;;;1.47;;
4732;SDS011;2380;53.668;10.008;2023-04-01T06:57:32;2.73;;;1.40;;
4732;SDS011;2380;53.668;10.008;2023-04-01T07:00:05;4.03;;;1.73;;
4732;SDS011;2380;53.668;10.008;2023-04-01T07:02:43;2.40;;;1.50;;
4732;SDS011;2380;53.668;10.008;2023-04-01T07:05:20;2.27;;;1.37;;
4732;SDS011;2380;53.668;10.008;2023-04-01T07:07:50;3.33;;;1.43;;
4732;SDS011;2380;53.668;10.008;2023-04-01T07:10:25;2.07;;;1.33;;
4732;SDS011;2380;53.668;10.008;2023-04-01T07:13:00;1.90;;;1.10;;
4732;SDS011;2380;53.668;10.008;2023-04-01T07:15:33;3.27;;;1.40;;
4732;SDS011;2380;53.668;10.008;2023-04-01T07:18:07;2.53;;;1.00;;
4732;SDS011;2380;53.668;10.008;2023-04-01T07:20:40;2.63;;;1.23;;
4732;SDS011;2380;53.668;10.008;2023-04-01T07:23:10;2.40;;;1.20;;
4732;SDS011;2380;53.668;10.008;2023-04-01T07:25:53;2.20;;;1.30;;
4732;SDS011;2380;53.668;10.008;2023-04-01T07:28:26;1.60;;;1.07;;
4732;SDS011;2380;53.668;10.008;2023-04-01T07:31:04;2.83;;;1.40;;
4732;SDS011;2380;53.668;10.008;2023-04-01T07:33:39;2.37;;;1.43;;
4732;SDS011;2380;53.668;10.008;2023-04-01T07:36:13;2.47;;;1.27;;
4732;SDS011;2380;53.668;10.008;2023-04-01T07:38:46;2.10;;;1.37;;
4732;SDS011;2380;53.668;10.008;2023-04-01T07:41:29;2.63;;;1.30;;
4732;SDS011;2380;53.668;10.008;2023-04-01T07:44:05;2.40;;;1.40;;
4732;SDS011;2380;53.668;10.008;2023-04-01T07:46:48;2.60;;;1.60;;
4732;SDS011;2380;53.668;10.008;2023-04-01T07:49:24;3.40;;;1.67;;
4732;SDS011;2380;53.668;10.008;2023-04-01T07:51:59;4.17;;;2.10;;
4732;SDS011;2380;53.668;10.008;2023-04-01T07:54:34;2.73;;;1.87;;
4732;SDS011;2380;53.668;10.008;2023-04-01T07:57:11;4.00;;;1.60;;
4732;SDS011;2380;53.668;10.008;2023-04-01T07:59:44;3.23;;;1.90;;
4732;SDS011;2380;53.668;10.008;2023-04-01T08:02:25;2.23;;;1.47;;
4732;SDS011;2380;53.668;10.008;2023-04-01T08:05:04;2.20;;;1.43;;
4732;SDS011;2380;53.668;10.008;2023-04-01T08:07:40;2.80;;;1.07;;
4732;SDS011;2380;53.668;10.008;2023-04-01T08:10:16;7.60;;;1.80;;
4732;SDS011;2380;53.668;10.008;2023-04-01T08:12:56;1.80;;;1.10;;
4732;SDS011;2380;53.668;10.008;2023-04-01T08:15:32;2.77;;;1.47;;
4732;SDS011;2380;53.668;10.008;2023-04-01T08:18:08;2.20;;;1.23;;
4732;SDS011;2380;53.668;10.008;2023-04-01T08:20:43;2.50;;;1.63;;
4732;SDS011;2380;53.668;10.008;2023-04-01T08:23:15;2.63;;;1.50;;
4732;SDS011;2380;53.668;10.008;2023-04-01T08:25:48;2.33;;;1.30;;
4732;SDS011;2380;53.668;10.008;2023-04-01T08:28:25;3.10;;;1.53;;
4732;SDS011;2380;53.668;10.008;2023-04-01T08:30:58;4.60;;;2.00;;
4732;SDS011;2380;53.668;10.008;2023-04-01T08:33:31;3.37;;;2.27;;
4732;SDS011;2380;53.668;10.008;2023-04-01T08:36:02;7.03;;;3.20;;
4732;SDS011;2380;53.668;10.008;2023-04-01T08:38:38;2.77;;;1.53;;
4732;SDS011;2380;53.668;10.008;2023-04-01T08:41:16;4.23;;;2.20;;
4732;SDS011;2380;53.668;10.008;2023-04-01T08:47:00;2.93;;;1.03;;
4732;SDS011;2380;53.668;10.008;2023-04-01T08:49:52;3.20;;;1.50;;
4732;SDS011;2380;53.668;10.008;2023-04-01T08:52:35;3.03;;;1.43;;
4732;SDS011;2380;53.668;10.008;2023-04-01T08:55:19;2.80;;;1.63;;
4732;SDS011;2380;53.668;10.008;2023-04-01T08:58:13;1.87;;;1.03;;
4732;SDS011;2380;53.668;10.008;2023-04-01T09:00:56;2.57;;;1.20;;
4732;SDS011;2380;53.668;10.008;2023-04-01T09:03:41;2.33;;;1.10;;
4732;SDS011;2380;53.668;10.008;2023-04-01T09:06:23;2.00;;;1.20;;
4732;SDS011;2380;53.668;10.008;2023-04-01T09:15:16;1.90;;;1.10;;
4732;SDS011;2380;53.668;10.008;2023-04-01T09:20:58;2.70;;;1.20;;
4732;SDS011;2380;53.668;10.008;2023-04-01T09:23:46;2.03;;;0.80;;
4732;SDS011;2380;53.668;10.008;2023-04-01T09:26:25;1.80;;;0.97;;
4732;SDS011;2380;53.668;10.008;2023-04-01T09:29:05;1.47;;;0.87;;
4732;SDS011;2380;53.668;10.008;2023-04-01T09:31:51;2.93;;;1.13;;
4732;SDS011;2380;53.668;10.008;2023-04-01T09:34:36;1.67;;;0.87;;
4732;SDS011;2380;53.668;10.008;2023-04-01T09:37:19;1.50;;;0.87;;
4732;SDS011;2380;53.668;10.008;2023-04-01T09:40:01;2.53;;;1.03;;
4732;SDS011;2380;53.668;10.008;2023-04-01T09:42:42;3.63;;;1.30;;
4732;SDS011;2380;53.668;10.008;2023-04-01T09:45:20;2.10;;;0.97;;
4732;SDS011;2380;53.668;10.008;2023-04-01T09:48:01;1.47;;;0.70;;
4732;SDS011;2380;53.668;10.008;2023-04-01T09:50:42;2.77;;;1.20;;
4732;SDS011;2380;53.668;10.008;2023-04-01T09:53:26;1.80;;;1.00;;
4732;SDS011;2380;53.668;10.008;2023-04-01T09:56:07;2.20;;;1.40;;
4732;SDS011;2380;53.668;10.008;2023-04-01T10:01:57;7.03;;;2.60;;
4732;SDS011;2380;53.668;10.008;2023-04-01T10:05:04;4.33;;;1.57;;
4732;SDS011;2380;53.668;10.008;2023-04-01T10:08:06;2.90;;;0.90;;
4732;SDS011;2380;53.668;10.008;2023-04-01T10:10:58;4.63;;;1.10;;
4732;SDS011;2380;53.668;10.008;2023-04-01T10:13:56;2.27;;;1.30;;
4732;SDS011;2380;53.668;10.008;2023-04-01T10:25:54;21.60;;;7.10;;
4732;SDS011;2380;53.668;10.008;2023-04-01T10:34:42;9.97;;;4.20;;
4732;SDS011;2380;53.668;10.008;2023-04-01T10:37:23;30.07;;;8.83;;
4732;SDS011;2380;53.668;10.008;2023-04-01T10:40:19;5.23;;;2.90;;
4732;SDS011;2380;53.668;10.008;2023-04-01T10:46:18;17.17;;;8.27;;
4732;SDS011;2380;53.668;10.008;2023-04-01T10:49:19;13.53;;;6.00;;
4732;SDS011;2380;53.668;10.008;2023-04-01T10:52:19;6.17;;;1.90;;
4732;SDS011;2380;53.668;10.008;2023-04-01T10:54:57;2.77;;;1.27;;
4732;SDS011;2380;53.668;10.008;2023-04-01T11:00:44;5.20;;;2.43;;
4732;SDS011;2380;53.668;10.008;2023-04-01T11:03:39;2.00;;;1.13;;
4732;SDS011;2380;53.668;10.008;2023-04-01T11:12:36;3.40;;;1.30;;
4732;SDS011;2380;53.668;10.008;2023-04-01T11:15:26;6.47;;;2.90;;
4732;SDS011;2380;53.668;10.008;2023-04-01T11:21:25;9.17;;;3.10;;
4732;SDS011;2380;53.668;10.008;2023-04-01T11:27:05;4.23;;;2.50;;
4732;SDS011;2380;53.668;10.008;2023-04-01T11:32:46;3.63;;;2.27;;
4732;SDS011;2380;53.668;10.008;2023-04-01T11:35:27;5.70;;;2.83;;
4732;SDS011;2380;53.668;10.008;2023-04-01T11:38:07;8.10;;;3.40;;
4732;SDS011;2380;53.668;10.008;2023-04-01T11:40:56;7.47;;;3.60;;
4732;SDS011;2380;53.668;10.008;2023-04-01T11:43:43;5.83;;;3.10;;
4732;SDS011;2380;53.668;10.008;2023-04-01T11:46:19;5.70;;;3.40;;
4732;SDS011;2380;53.668;10.008;2023-04-01T11:48:58;4.07;;;2.83;;
4732;SDS011;2380;53.668;10.008;2023-04-01T11:51:36;6.17;;;3.57;;
4732;SDS011;2380;53.668;10.008;2023-04-01T11:54:17;7.20;;;3.40;;
4732;SDS011;2380;53.668;10.008;2023-04-01T11:56:59;5.47;;;3.03;;
4732;SDS011;2380;53.668;10.008;2023-04-01T11:59:44;5.90;;;3.00;;
4732;SDS011;2380;53.668;10.008;2023-04-01T12:02:23;5.60;;;3.20;;
4732;SDS011;2380;53.668;10.008;2023-04-01T12:04:58;5.97;;;3.40;;
4732;SDS011;2380;53.668;10.008;2023-04-01T12:07:44;6.00;;;3.20;;
4732;SDS011;2380;53.668;10.008;2023-04-01T12:10:25;5.93;;;3.10;;
4732;SDS011;2380;53.668;10.008;2023-04-01T12:12:59;5.77;;;3.80;;
4732;SDS011;2380;53.668;10.008;2023-04-01T12:15:36;8.07;;;3.67;;
4732;SDS011;2380;53.668;10.008;2023-04-01T12:18:14;8.30;;;3.80;;
4732;SDS011;2380;53.668;10.008;2023-04-01T12:20:49;8.30;;;5.10;;
4732;SDS011;2380;53.668;10.008;2023-04-01T12:26:22;4.57;;;3.30;;
4732;SDS011;2380;53.668;10.008;2023-04-01T12:29:06;9.50;;;4.03;;
4732;SDS011;2380;53.668;10.008;2023-04-01T12:31:42;9.73;;;4.23;;
4732;SDS011;2380;53.668;10.008;2023-04-01T12:37:12;8.57;;;3.97;;
4732;SDS011;2380;53.668;10.008;2023-04-01T12:39:58;8.30;;;5.10;;
4732;SDS011;2380;53.668;10.008;2023-04-01T12:42:52;14.40;;;5.80;;
4732;SDS011;2380;53.668;10.008;2023-04-01T12:45:29;14.33;;;5.80;;
4732;SDS011;2380;53.668;10.008;2023-04-01T12:53:53;22.33;;;12.70;;
4732;SDS011;2380;53.668;10.008;2023-04-01T12:56:37;23.23;;;13.03;;
4732;SDS011;2380;53.668;10.008;2023-04-01T12:59:25;39.63;;;20.43;;
4732;SDS011;2380;53.668;10.008;2023-04-01T13:02:04;8.60;;;5.53;;
4732;SDS011;2380;53.668;10.008;2023-04-01T13:13:36;12.30;;;4.10;;
4732;SDS011;2380;53.668;10.008;2023-04-01T13:16:16;8.97;;;4.63;;
4732;SDS011;2380;53.668;10.008;2023-04-01T13:18:52;7.50;;;4.40;;
4732;SDS011;2380;53.668;10.008;2023-04-01T13:21:29;5.50;;;3.60;;
4732;SDS011;2380;53.668;10.008;2023-04-01T13:24:08;8.70;;;4.60;;
4732;SDS011;2380;53.668;10.008;2023-04-01T13:26:47;13.43;;;4.80;;
4732;SDS011;2380;53.668;10.008;2023-04-01T13:29:23;9.73;;;3.77;;
4732;SDS011;2380;53.668;10.008;2023-04-01T13:32:06;12.53;;;4.70;;
4732;SDS011;2380;53.668;10.008;2023-04-01T13:34:46;8.20;;;4.00;;
4732;SDS011;2380;53.668;10.008;2023-04-01T13:37:25;6.33;;;3.30;;
4732;SDS011;2380;53.668;10.008;2023-04-01T13:43:18;13.90;;;7.20;;
4732;SDS011;2380;53.668;10.008;2023-04-01T13:46:07;7.63;;;4.30;;
4732;SDS011;2380;53.668;10.008;2023-04-01T13:48:50;17.30;;;6.97;;
4732;SDS011;2380;53.668;10.008;2023-04-01T13:51:37;13.07;;;5.80;;
4732;SDS011;2380;53.668;10.008;2023-04-01T13:54:24;9.90;;;4.70;;
4732;SDS011;2380;53.668;10.008;2023-04-01T13:57:15;6.27;;;3.53;;
4732;SDS011;2380;53.668;10.008;2023-04-01T14:02:44;22.27;;;10.73;;
4732;SDS011;2380;53.668;10.008;2023-04-01T14:05:31;14.13;;;6.83;;
4732;SDS011;2380;53.668;10.008;2023-04-01T14:08:11;13.90;;;4.87;;
4732;SDS011;2380;53.668;10.008;2023-04-01T14:10:48;15.90;;;7.10;;
4732;SDS011;2380;53.668;10.008;2023-04-01T14:13:27;16.90;;;8.63;;
4732;SDS011;2380;53.668;10.008;2023-04-01T14:16:09;11.33;;;6.17;;
4732;SDS011;2380;53.668;10.008;2023-04-01T14:18:56;14.10;;;5.07;;
4732;SDS011;2380;53.668;10.008;2023-04-01T14:21:36;35.33;;;15.10;;
4732;SDS011;2380;53.668;10.008;2023-04-01T14:26:59;12.80;;;5.07;;
4732;SDS011;2380;53.668;10.008;2023-04-01T14:29:38;11.87;;;5.87;;
4732;SDS011;2380;53.668;10.008;2023-04-01T14:32:15;9.97;;;5.00;;
4732;SDS011;2380;53.668;10.008;2023-04-01T14:34:54;16.10;;;7.10;;
4732;SDS011;2380;53.668;10.008;2023-04-01T14:37:40;15.00;;;7.53;;
4732;SDS011;2380;53.668;10.008;2023-04-01T14:40:38;10.80;;;5.17;;
4732;SDS011;2380;53.668;10.008;2023-04-01T14:43:21;28.07;;;12.60;;
4732;SDS011;2380;53.668;10.008;2023-04-01T14:46:14;16.13;;;8.57;;
4732;SDS011;2380;53.668;10.008;2023-04-01T14:48:52;18.00;;;7.00;;
4732;SDS011;2380;53.668;10.008;2023-04-01T14:51:28;13.20;;;6.97;;
4732;SDS011;2380;53.668;10.008;2023-04-01T14:54:03;45.57;;;23.13;;
4732;SDS011;2380;53.668;10.008;2023-04-01T14:56:34;50.07;;;24.80;;
4732;SDS011;2380;53.668;10.008;2023-04-01T14:59:07;68.57;;;31.10;;
4732;SDS011;2380;53.668;10.008;2023-04-01T15:01:40;37.53;;;20.73;;
4732;SDS011;2380;53.668;10.008;2023-04-01T15:04:25;15.70;;;6.53;;
4732;SDS011;2380;53.668;10.008;2023-04-01T15:07:35;26.33;;;12.70;;
4732;SDS011;2380;53.668;10.008;2023-04-01T15:10:23;18.43;;;6.67;;
4732;SDS011;2380;53.668;10.008;2023-04-01T15:13:04;12.50;;;7.10;;
4732;SDS011;2380;53.668;10.008;2023-04-01T15:15:44;11.33;;;6.20;;
4732;SDS011;2380;53.668;10.008;2023-04-01T15:18:21;11.70;;;5.50;;
4732;SDS011;2380;53.668;10.008;2023-04-01T15:21:09;20.07;;;8.23;;
4732;SDS011;2380;53.668;10.008;2023-04-01T15:23:47;15.10;;;6.90;;
4732;SDS011;2380;53.668;10.008;2023-04-01T15:26:27;14.60;;;6.50;;
4732;SDS011;2380;53.668;10.008;2023-04-01T15:29:11;15.07;;;7.30;;
4732;SDS011;2380;53.668;10.008;2023-04-01T15:31:50;34.37;;;11.63;;
4732;SDS011;2380;53.668;10.008;2023-04-01T15:34:26;23.37;;;10.10;;
4732;SDS011;2380;53.668;10.008;2023-04-01T15:37:02;25.77;;;9.00;;
4732;SDS011;2380;53.668;10.008;2023-04-01T15:39:48;13.40;;;6.47;;
4732;SDS011;2380;53.668;10.008;2023-04-01T15:42:34;13.90;;;5.33;;
4732;SDS011;2380;53.668;10.008;2023-04-01T15:45:26;13.73;;;6.50;;
4732;SDS011;2380;53.668;10.008;2023-04-01T15:48:02;14.50;;;6.73;;
4732;SDS011;2380;53.668;10.008;2023-04-01T15:50:51;19.43;;;7.67;;
4732;SDS011;2380;53.668;10.008;2023-04-01T15:53:35;19.93;;;8.33;;
4732;SDS011;2380;53.668;10.008;2023-04-01T15:56:13;17.13;;;8.23;;
4732;SDS011;2380;53.668;10.008;2023-04-01T15:58:52;14.20;;;6.00;;
4732;SDS011;2380;53.668;10.008;2023-04-01T16:01:32;11.63;;;5.70;;
4732;SDS011;2380;53.668;10.008;2023-04-01T16:04:11;21.33;;;10.03;;
4732;SDS011;2380;53.668;10.008;2023-04-01T16:06:56;21.07;;;10.53;;
4732;SDS011;2380;53.668;10.008;2023-04-01T16:09:39;21.80;;;9.27;;
4732;SDS011;2380;53.668;10.008;2023-04-01T16:12:15;25.43;;;11.63;;
4732;SDS011;2380;53.668;10.008;2023-04-01T16:14:54;13.93;;;5.30;;
4732;SDS011;2380;53.668;10.008;2023-04-01T16:17:31;20.20;;;9.50;;
4732;SDS011;2380;53.668;10.008;2023-04-01T16:20:15;21.80;;;9.70;;
4732;SDS011;2380;53.668;10.008;2023-04-01T16:22:53;14.70;;;7.80;;
4732;SDS011;2380;53.668;10.008;2023-04-01T16:25:31;16.23;;;8.53;;
4732;SDS011;2380;53.668;10.008;2023-04-01T16:28:05;29.40;;;10.83;;
4732;SDS011;2380;53.668;10.008;2023-04-01T16:30:46;17.50;;;6.80;;
4732;SDS011;2380;53.668;10.008;2023-04-01T16:33:20;14.40;;;5.87;;
4732;SDS011;2380;53.668;10.008;2023-04-01T16:35:53;14.17;;;6.10;;
4732;SDS011;2380;53.668;10.008;2023-04-01T16:38:26;18.50;;;9.23;;
4732;SDS011;2380;53.668;10.008;2023-04-01T16:41:07;33.07;;;16.87;;
4732;SDS011;2380;53.668;10.008;2023-04-01T16:43:41;90.80;;;44.47;;
4732;SDS011;2380;53.668;10.008;2023-04-01T16:46:26;46.23;;;22.10;;
4732;SDS011;2380;53.668;10.008;2023-04-01T16:48:58;23.50;;;11.70;;
4732;SDS011;2380;53.668;10.008;2023-04-01T16:51:44;23.23;;;9.10;;
4732;SDS011;2380;53.668;10.008;2023-04-01T16:54:18;16.47;;;5.80;;
4732;SDS011;2380;53.668;10.008;2023-04-01T16:57:02;13.70;;;6.23;;
4732;SDS011;2380;53.668;10.008;2023-04-01T16:59:34;11.77;;;6.20;;
4732;SDS011;2380;53.668;10.008;2023-04-01T17:02:10;12.83;;;6.40;;
4732;SDS011;2380;53.668;10.008;2023-04-01T17:04:44;15.30;;;7.80;;
4732;SDS011;2380;53.668;10.008;2023-04-01T17:07:18;18.13;;;7.57;;
4732;SDS011;2380;53.668;10.008;2023-04-01T17:09:59;8.60;;;5.10;;
4732;SDS011;2380;53.668;10.008;2023-04-01T17:12:35;12.10;;;5.10;;
4732;SDS011;2380;53.668;10.008;2023-04-01T17:15:11;20.13;;;6.37;;
4732;SDS011;2380;53.668;10.008;2023-04-01T17:17:52;14.33;;;6.80;;
4732;SDS011;2380;53.668;10.008;2023-04-01T17:20:28;12.90;;;6.37;;